Time;durP1;ratioP1;P1;durP2;ratioP2;P2;SDS_P1;SDS_P2;PMS_P1;PMS_P2;Temp;Humidity;BMP_temperature;BMP_pressure;BME280_temperature;BME280_humidity;BME280_pressure;Samples;Min_cycle;Max_cycle;Signal;HPM_P1;HPM_P2
2022/06/01 00:02:26;;;;;;;12.45;4.60;;;24.90;99.90;;;;;;4990649;28;20084;-59
2022/06/01 00:04:52;;;;;;;11.93;4.10;;;24.90;99.90;;;;;;4995224;28;20030;-61
2022/06/01 00:07:19;;;;;;;12.80;5.10;;;24.90;99.90;;;;;;4999993;28;20030;-62
2022/06/01 00:09:45;;;;;;;9.75;4.63;;;24.90;99.90;;;;;;4990280;28;20113;-62
2022/06/01 00:12:11;;;;;;;10.85;4.43;;;24.90;99.90;;;;;;4996923;28;20731;-63
2022/06/01 00:14:37;;;;;;;9.00;4.38;;;24.90;99.90;;;;;;4989173;28;20039;-63
2022/06/01 00:17:03;;;;;;;12.45;4.30;;;24.90;99.90;;;;;;4993501;28;20026;-62
2022/06/01 00:19:29;;;;;;;14.73;3.97;;;24.90;99.90;;;;;;5001156;28;20095;-62
2022/06/01 00:22:14;;;;;;;8.48;4.10;;;24.90;99.90;;;;;;4992572;28;20398;-62
2022/06/01 00:24:41;;;;;;;11.68;3.95;;;24.90;99.90;;;;;;4989372;28;20023;-61
2022/06/01 00:27:08;;;;;;;9.10;3.17;;;24.90;99.90;;;;;;4991759;28;20566;-62
2022/06/01 00:29:35;;;;;;;7.85;3.38;;;24.90;99.90;;;;;;4989720;28;20080;-62
2022/06/01 00:32:01;;;;;;;13.10;3.67;;;24.90;99.90;;;;;;4993404;28;20022;-62
2022/06/01 00:34:27;;;;;;;8.15;2.58;;;24.80;99.90;;;;;;4990722;28;20046;-62
2022/06/01 00:36:53;;;;;;;6.70;3.30;;;24.70;99.90;;;;;;4995895;28;20065;-62
2022/06/01 00:39:19;;;;;;;4.63;2.67;;;24.70;99.90;;;;;;4989355;28;20120;-65
2022/06/01 00:41:44;;;;;;;10.00;2.95;;;24.70;99.90;;;;;;4989027;28;20482;-63
2022/06/01 00:44:10;;;;;;;10.95;3.88;;;24.70;99.90;;;;;;4995046;28;20175;-65
2022/06/01 00:46:36;;;;;;;7.85;3.40;;;24.60;99.90;;;;;;4990680;28;20022;-62
2022/06/01 00:49:15;;;;;;;8.57;2.90;;;24.70;99.90;;;;;;4992214;28;20085;-61
2022/06/01 00:51:42;;;;;;;9.02;3.17;;;24.70;99.90;;;;;;4989017;28;20452;-62
2022/06/01 00:54:08;;;;;;;10.13;3.10;;;24.60;99.90;;;;;;4989910;28;20026;-61
2022/06/01 00:56:46;;;;;;;6.25;2.90;;;24.60;99.90;;;;;;4998567;28;20152;-61
2022/06/01 01:01:46;;;;;;;16.40;3.13;;;24.60;99.90;;;;;;5009170;28;20054;-51
2022/06/01 01:04:14;;;;;;;10.30;3.53;;;24.60;99.90;;;;;;5012181;28;20616;-51
2022/06/01 01:06:40;;;;;;;;;;;24.60;99.90;;;;;;5011568;28;20500;-51
2022/06/01 01:09:07;;;;;;;10.32;3.55;;;24.60;99.90;;;;;;5010551;28;20333;-50
2022/06/01 01:11:55;;;;;;;13.30;3.33;;;24.60;99.90;;;;;;5006883;28;20033;-51
2022/06/01 01:14:25;;;;;;;11.13;3.00;;;24.60;99.90;;;;;;5008164;28;20030;-51
2022/06/01 01:16:51;;;;;;;9.45;3.17;;;24.60;99.90;;;;;;5008155;28;20461;-52
2022/06/01 01:19:49;;;;;;;14.48;3.38;;;24.50;99.90;;;;;;5006524;28;20026;-52
2022/06/01 01:22:27;;;;;;;7.95;2.92;;;24.50;99.90;;;;;;5024600;28;20325;-51
2022/06/01 01:25:19;;;;;;;8.55;2.55;;;24.50;99.90;;;;;;5008596;28;20014;-51
2022/06/01 01:27:46;;;;;;;10.57;2.75;;;24.50;99.90;;;;;;5010372;28;20061;-51
2022/06/01 01:30:26;;;;;;;7.90;2.83;;;24.50;99.90;;;;;;5008837;28;20426;-51
2022/06/01 01:32:52;;;;;;;9.60;2.95;;;24.50;99.90;;;;;;5005619;28;20088;-51
2022/06/01 01:35:19;;;;;;;8.57;3.38;;;24.60;99.90;;;;;;5010808;28;20045;-51
2022/06/01 01:37:47;;;;;;;7.30;2.58;;;24.50;99.90;;;;;;5004190;28;20022;-51
2022/06/01 01:40:13;;;;;;;8.02;2.83;;;24.50;99.90;;;;;;5009593;28;20033;-51
2022/06/01 01:42:39;;;;;;;23.77;4.50;;;24.40;99.90;;;;;;5011274;28;20029;-51
2022/06/01 01:45:23;;;;;;;9.68;2.78;;;24.40;99.90;;;;;;4999630;28;20034;-51
2022/06/01 01:47:53;;;;;;;9.27;3.25;;;24.40;99.90;;;;;;5004727;28;20038;-50
2022/06/01 01:50:20;;;;;;;7.93;3.17;;;24.40;99.90;;;;;;5011100;28;20018;-50
2022/06/01 01:52:46;;;;;;;8.63;3.27;;;24.40;99.90;;;;;;4996788;28;20253;-50
2022/06/01 01:55:55;;;;;;;11.23;3.00;;;24.40;99.90;;;;;;5009391;28;20042;-52
2022/06/01 01:59:01;;;;;;;12.15;3.20;;;24.40;99.90;;;;;;4952051;29;20055;-53
2022/06/01 02:01:37;;;;;;;10.85;3.83;;;24.30;99.90;;;;;;4985469;23;20418;-53
2022/06/01 02:06:03;;;;;;;11.30;3.78;;;24.40;99.90;;;;;;4970424;28;20031;-56
2022/06/01 02:07:03;;;;;;;10.52;3.55;;;24.30;99.90;;;;;;4969840;28;20141;-56
2022/06/01 02:12:40;;;;;;;11.32;3.83;;;24.30;99.90;;;;;;4973416;28;20022;-57
2022/06/01 02:15:00;;;;;;;11.70;4.28;;;24.40;99.90;;;;;;4961049;28;20153;-55
2022/06/01 02:17:31;;;;;;;10.50;3.47;;;24.50;99.90;;;;;;4971442;28;20118;-57
2022/06/01 02:20:05;;;;;;;12.60;3.75;;;24.50;99.90;;;;;;4967258;28;20030;-54
2022/06/01 02:22:34;;;;;;;10.93;3.60;;;24.50;99.90;;;;;;4972622;28;20027;-52
2022/06/01 02:25:00;;;;;;;17.92;3.90;;;24.50;99.90;;;;;;4965917;28;20061;-51
2022/06/01 02:27:25;;;;;;;10.88;4.00;;;24.40;99.90;;;;;;4973243;28;20486;-52
2022/06/01 02:30:01;;;;;;;16.70;4.15;;;24.30;99.90;;;;;;4965406;28;20026;-54
2022/06/01 02:32:28;;;;;;;12.65;4.20;;;24.30;99.90;;;;;;4961228;28;20018;-54
2022/06/01 02:34:56;;;;;;;14.27;4.38;;;24.30;99.90;;;;;;4962547;28;20030;-53
2022/06/01 02:37:23;;;;;;;11.95;3.58;;;24.30;99.90;;;;;;4969894;28;20023;-54
2022/06/01 02:39:53;;;;;;;14.45;4.57;;;24.30;99.90;;;;;;4967263;28;20034;-53
2022/06/01 02:42:28;;;;;;;12.38;4.82;;;24.20;99.90;;;;;;4971404;28;20545;-55
2022/06/01 02:44:59;;;;;;;13.73;4.43;;;24.20;99.90;;;;;;4960602;28;20027;-53
2022/06/01 02:47:28;;;;;;;12.18;4.13;;;24.10;99.90;;;;;;4970997;28;20022;-54
2022/06/01 02:49:54;;;;;;;12.32;4.03;;;24.00;99.90;;;;;;4966525;28;20023;-52
2022/06/01 02:52:20;;;;;;;11.35;4.63;;;24.00;99.90;;;;;;4964978;28;20386;-53
2022/06/01 02:54:46;;;;;;;11.18;4.10;;;24.00;99.90;;;;;;4972836;28;20453;-50
2022/06/01 02:57:14;;;;;;;6.82;3.70;;;24.00;99.90;;;;;;4971309;28;20094;-54
2022/06/01 02:59:41;;;;;;;10.10;4.32;;;24.00;99.90;;;;;;4966411;28;20034;-52
2022/06/01 03:02:09;;;;;;;11.60;4.00;;;23.90;99.90;;;;;;4966084;28;20030;-55
2022/06/01 03:04:36;;;;;;;20.65;4.85;;;23.80;99.90;;;;;;4972458;28;20165;-54
2022/06/01 03:07:02;;;;;;;11.23;4.82;;;23.80;99.90;;;;;;4972639;28;20062;-54
2022/06/01 03:09:28;;;;;;;11.57;4.53;;;23.80;99.90;;;;;;4972618;28;20077;-56
2022/06/01 03:11:54;;;;;;;11.32;5.07;;;23.70;99.90;;;;;;4972794;28;20022;-56
2022/06/01 03:14:20;;;;;;;13.15;4.85;;;23.60;99.90;;;;;;4972092;28;20042;-56
2022/06/01 03:16:46;;;;;;;11.30;4.60;;;23.50;99.90;;;;;;4972938;28;20070;-56
2022/06/01 03:19:12;;;;;;;9.95;4.30;;;23.50;99.90;;;;;;4971916;28;20027;-54
2022/06/01 03:21:40;;;;;;;11.57;4.25;;;23.40;99.90;;;;;;4958120;28;20015;-54
2022/06/01 03:24:06;;;;;;;12.32;3.95;;;23.40;99.90;;;;;;4969200;28;20022;-55
2022/06/01 03:26:32;;;;;;;16.07;4.27;;;23.40;99.90;;;;;;4971406;28;20066;-54
2022/06/01 03:28:58;;;;;;;9.48;3.60;;;23.40;99.90;;;;;;4971260;28;20023;-55
2022/06/01 03:31:24;;;;;;;11.52;4.18;;;23.40;99.90;;;;;;4965409;28;20030;-56
2022/06/01 03:33:50;;;;;;;9.18;3.90;;;23.40;99.90;;;;;;4970509;28;20045;-55
2022/06/01 03:36:15;;;;;;;14.68;4.75;;;23.50;99.90;;;;;;4970390;28;20098;-55
2022/06/01 03:38:41;;;;;;;9.60;3.58;;;23.50;99.90;;;;;;4970706;28;20119;-56
2022/06/01 03:41:07;;;;;;;11.23;3.67;;;23.50;99.90;;;;;;4970046;28;20039;-55
2022/06/01 03:45:55;;;;;;;9.25;4.28;;;23.50;99.90;;;;;;4971001;28;20031;-56
2022/06/01 03:46:22;;;;;;;14.15;5.07;;;23.40;99.90;;;;;;4969333;28;20475;-55
2022/06/01 03:48:49;;;;;;;14.45;5.50;;;23.40;99.90;;;;;;4970414;28;20023;-55
2022/06/01 03:51:15;;;;;;;12.88;4.65;;;23.40;99.90;;;;;;4970955;28;20035;-56
2022/06/01 03:53:42;;;;;;;13.50;5.10;;;23.30;99.90;;;;;;4970118;28;20429;-57
2022/06/01 03:56:08;;;;;;;11.60;6.35;;;23.30;99.90;;;;;;4970441;28;20054;-56
2022/06/01 03:58:35;;;;;;;14.40;5.45;;;23.30;99.90;;;;;;4962015;28;20470;-56
2022/06/01 04:01:02;;;;;;;10.95;5.25;;;23.30;99.90;;;;;;4956119;28;20051;-56
2022/06/01 04:03:29;;;;;;;11.88;5.05;;;23.20;99.90;;;;;;4968489;28;20081;-56
2022/06/01 04:05:55;;;;;;;17.75;6.28;;;23.30;99.90;;;;;;4972228;28;20050;-56
2022/06/01 04:08:21;;;;;;;11.82;5.78;;;23.30;99.90;;;;;;4972166;28;20478;-56
2022/06/01 04:10:47;;;;;;;13.27;5.53;;;23.30;99.90;;;;;;4972475;28;20034;-56
2022/06/01 04:13:14;;;;;;;9.70;4.97;;;23.30;99.90;;;;;;4972234;28;20526;-56
2022/06/01 04:15:40;;;;;;;10.70;5.85;;;23.20;99.90;;;;;;4972059;28;20482;-56
2022/06/01 04:18:06;;;;;;;14.70;5.32;;;23.20;99.90;;;;;;4972223;28;20042;-56
2022/06/01 04:20:32;;;;;;;9.07;4.18;;;23.20;99.90;;;;;;4972063;28;20029;-57
2022/06/01 04:23:00;;;;;;;12.48;5.25;;;23.30;99.90;;;;;;4970990;28;20101;-56
2022/06/01 04:25:28;;;;;;;9.18;4.70;;;23.30;99.90;;;;;;4971957;28;20019;-56
2022/06/01 04:27:54;;;;;;;9.30;4.65;;;23.30;99.90;;;;;;4972026;28;20027;-55
2022/06/01 04:30:21;;;;;;;10.07;4.97;;;23.30;99.90;;;;;;4972109;28;20529;-55
2022/06/01 04:32:50;;;;;;;12.00;4.40;;;23.30;99.90;;;;;;4975890;28;20027;-55
2022/06/01 04:35:17;;;;;;;9.13;4.03;;;23.30;99.90;;;;;;4975643;28;20042;-54
2022/06/01 04:37:43;;;;;;;13.43;6.20;;;23.30;99.90;;;;;;4955173;28;20031;-54
2022/06/01 04:40:11;;;;;;;11.52;5.22;;;23.30;99.90;;;;;;4968062;28;20057;-54
2022/06/01 04:42:39;;;;;;;13.98;5.38;;;23.30;99.90;;;;;;4975473;28;20022;-54
2022/06/01 04:45:07;;;;;;;10.45;5.55;;;23.30;99.90;;;;;;4975524;28;20057;-54
2022/06/01 04:47:32;;;;;;;;;;;23.30;99.90;;;;;;4975960;28;20015;-55
2022/06/01 04:49:58;;;;;;;12.10;5.93;;;23.20;99.90;;;;;;4970898;28;19906;-54
2022/06/01 04:52:24;;;;;;;14.10;6.90;;;23.20;99.90;;;;;;4964727;28;20471;-55
2022/06/01 04:54:50;;;;;;;12.07;6.18;;;23.20;99.90;;;;;;4975367;28;20125;-55
2022/06/01 04:57:15;;;;;;;9.40;4.47;;;23.10;99.90;;;;;;4975448;28;20026;-55
2022/06/01 04:59:41;;;;;;;15.65;5.03;;;23.10;99.90;;;;;;4975345;28;20030;-55
2022/06/01 05:02:07;;;;;;;11.32;5.00;;;23.10;99.90;;;;;;4973880;28;20376;-55
2022/06/01 05:04:33;;;;;;;9.60;4.50;;;23.00;99.90;;;;;;4975241;28;20102;-56
2022/06/01 05:07:00;;;;;;;9.38;3.67;;;23.00;99.90;;;;;;4975143;28;20027;-55
2022/06/01 05:09:26;;;;;;;13.47;4.60;;;23.00;99.90;;;;;;4974998;28;20026;-56
2022/06/01 05:11:53;;;;;;;9.50;3.58;;;23.00;99.90;;;;;;4975333;28;20613;-56
2022/06/01 05:14:18;;;;;;;11.30;3.80;;;23.10;99.90;;;;;;4975132;28;20046;-55
2022/06/01 05:16:44;;;;;;;10.98;3.83;;;23.00;99.90;;;;;;4974870;28;20037;-55
2022/06/01 05:19:10;;;;;;;14.85;3.60;;;23.10;99.90;;;;;;4974986;28;20106;-56
2022/06/01 05:21:36;;;;;;;12.30;4.38;;;23.10;99.90;;;;;;4974740;28;20034;-55
2022/06/01 05:24:02;;;;;;;11.90;3.75;;;23.10;99.90;;;;;;4974789;28;20022;-55
2022/06/01 05:26:27;;;;;;;15.93;3.83;;;23.20;99.90;;;;;;4974751;28;20106;-56
2022/06/01 05:28:53;;;;;;;13.02;3.42;;;23.20;99.90;;;;;;4973523;28;20098;-55
2022/06/01 05:31:19;;;;;;;10.98;3.60;;;23.30;99.90;;;;;;4974630;28;20049;-55
2022/06/01 05:33:47;;;;;;;7.95;4.10;;;23.30;99.90;;;;;;4974800;28;20035;-56
2022/06/01 05:36:15;;;;;;;9.98;4.18;;;23.30;99.90;;;;;;4974538;28;20038;-55
2022/06/01 05:38:42;;;;;;;11.13;4.20;;;23.30;99.90;;;;;;4974765;28;20482;-56
2022/06/01 05:41:08;;;;;;;15.93;4.00;;;23.40;99.90;;;;;;4974625;28;20066;-56
2022/06/01 05:43:34;;;;;;;13.65;3.90;;;23.30;99.90;;;;;;4973269;28;20015;-55
2022/06/01 05:46:01;;;;;;;9.02;3.65;;;23.30;99.90;;;;;;4974459;28;20085;-54
2022/06/01 05:48:27;;;;;;;8.73;3.58;;;23.30;99.90;;;;;;4974495;28;20029;-55
2022/06/01 05:50:52;;;;;;;9.15;4.15;;;23.40;99.90;;;;;;4974439;28;20566;-54
2022/06/01 05:53:18;;;;;;;11.73;4.50;;;23.40;99.90;;;;;;4974264;28;20051;-55
2022/06/01 05:55:44;;;;;;;14.88;4.15;;;23.40;99.90;;;;;;4974126;28;20027;-55
2022/06/01 05:58:18;;;;;;;15.23;4.82;;;23.40;99.90;;;;;;4974306;28;20027;-57
2022/06/01 06:00:45;;;;;;;11.13;6.05;;;23.40;99.90;;;;;;4974108;28;20498;-55
2022/06/01 06:03:11;;;;;;;14.70;4.40;;;23.40;99.90;;;;;;4974090;28;20398;-55
2022/06/01 06:08:22;;;;;;;16.05;4.75;;;23.40;99.90;;;;;;4974215;28;20089;-55
2022/06/01 06:10:48;;;;;;;12.35;3.65;;;23.40;99.90;;;;;;4961620;28;20038;-54
2022/06/01 06:13:14;;;;;;;20.17;4.60;;;23.40;99.90;;;;;;4970972;28;20470;-55
2022/06/01 06:15:40;;;;;;;19.40;4.93;;;23.40;99.90;;;;;;4973819;28;20030;-56
2022/06/01 06:18:07;;;;;;;13.20;5.60;;;23.50;99.90;;;;;;4973799;28;20490;-56
2022/06/01 06:20:33;;;;;;;12.57;4.15;;;23.40;99.90;;;;;;4973528;28;20031;-56
2022/06/01 06:22:59;;;;;;;17.55;5.32;;;23.40;99.90;;;;;;4973795;28;20463;-54
2022/06/01 06:25:25;;;;;;;12.23;4.75;;;23.40;99.90;;;;;;4973779;28;20062;-54
2022/06/01 06:27:51;;;;;;;15.88;5.03;;;23.40;99.90;;;;;;4973750;28;20030;-54
2022/06/01 06:30:19;;;;;;;15.48;6.00;;;23.40;99.90;;;;;;4973681;28;20018;-54
2022/06/01 06:32:45;;;;;;;;;;;23.30;99.90;;;;;;4973885;28;20115;-54
2022/06/01 06:35:12;;;;;;;16.30;5.43;;;23.30;99.90;;;;;;4973418;28;19914;-54
2022/06/01 06:37:37;;;;;;;20.23;6.65;;;23.30;99.90;;;;;;4958728;28;20566;-54
2022/06/01 06:40:04;;;;;;;14.63;5.07;;;23.30;99.90;;;;;;4971323;28;20031;-55
2022/06/01 06:42:30;;;;;;;15.68;5.05;;;23.30;99.90;;;;;;4973214;28;20014;-55
2022/06/01 06:44:56;;;;;;;15.27;4.93;;;23.40;99.90;;;;;;4973290;28;20438;-54
2022/06/01 06:47:22;;;;;;;10.98;5.18;;;23.40;99.90;;;;;;4973124;28;20011;-54
2022/06/01 06:49:48;;;;;;;16.70;5.03;;;23.50;99.90;;;;;;4973200;28;20030;-55
2022/06/01 06:52:14;;;;;;;13.02;4.90;;;23.50;99.90;;;;;;4973061;28;20101;-54
2022/06/01 06:54:40;;;;;;;12.20;5.35;;;23.70;99.90;;;;;;4972655;28;20031;-55
2022/06/01 06:57:07;;;;;;;18.00;5.18;;;23.70;99.90;;;;;;4973098;28;20019;-55
2022/06/01 06:59:32;;;;;;;10.45;3.60;;;23.80;99.90;;;;;;4972641;28;20105;-54
2022/06/01 07:01:58;;;;;;;8.57;3.85;;;23.80;99.90;;;;;;4973268;28;20114;-55
2022/06/01 07:04:24;;;;;;;10.07;3.53;;;23.80;99.90;;;;;;4972943;28;20037;-56
2022/06/01 07:06:50;;;;;;;11.05;3.78;;;23.90;99.90;;;;;;4972806;28;20038;-55
2022/06/01 07:09:16;;;;;;;13.95;4.05;;;23.90;99.90;;;;;;4971593;28;20493;-54
2022/06/01 07:11:42;;;;;;;10.63;3.75;;;24.00;99.90;;;;;;4972695;28;20496;-54
2022/06/01 07:14:07;;;;;;;7.88;3.08;;;24.10;99.90;;;;;;4972875;28;20039;-55
2022/06/01 07:16:35;;;;;;;8.20;3.40;;;24.10;99.90;;;;;;4956162;28;20049;-55
2022/06/01 07:19:01;;;;;;;;;;;24.10;99.90;;;;;;4959886;28;20391;-54
2022/06/01 07:21:28;;;;;;;10.68;3.40;;;24.20;99.90;;;;;;4972889;28;19953;-55
2022/06/01 07:23:54;;;;;;;10.20;3.55;;;24.20;99.90;;;;;;4972642;28;20390;-55
2022/06/01 07:26:26;;;;;;;12.40;4.90;;;24.20;99.90;;;;;;4972736;28;20030;-55
2022/06/01 07:28:52;;;;;;;8.73;3.28;;;24.20;99.90;;;;;;4968127;28;20035;-56
2022/06/01 07:31:18;;;;;;;11.18;4.40;;;24.30;99.90;;;;;;4971908;28;20078;-54
2022/06/01 07:33:46;;;;;;;15.63;3.72;;;24.30;99.90;;;;;;4972379;28;20074;-54
2022/06/01 07:36:15;;;;;;;13.40;4.40;;;24.30;99.90;;;;;;4972249;28;20114;-54
2022/06/01 07:44:23;;;;;;;12.25;3.80;;;24.30;99.90;;;;;;4972391;28;20075;-55
2022/06/01 07:46:49;;;;;;;12.93;4.20;;;24.30;99.90;;;;;;4972137;28;20106;-55
2022/06/01 07:49:16;;;;;;;9.68;3.85;;;24.40;99.90;;;;;;4965807;28;20023;-54
2022/06/01 07:51:42;;;;;;;14.15;4.50;;;24.40;99.90;;;;;;4964139;28;20386;-54
2022/06/01 07:54:08;;;;;;;9.98;3.63;;;24.40;99.90;;;;;;4972096;28;20403;-55
2022/06/01 07:56:34;;;;;;;18.10;4.97;;;24.40;99.90;;;;;;4972292;28;20485;-54
2022/06/01 07:59:00;;;;;;;13.70;3.75;;;24.40;99.90;;;;;;4972385;28;20031;-53
2022/06/01 08:01:26;;;;;;;13.60;4.38;;;24.40;99.90;;;;;;4971892;28;20150;-54
2022/06/01 08:03:58;;;;;;;10.70;4.88;;;24.50;99.90;;;;;;4971991;28;20512;-54
2022/06/01 08:06:25;;;;;;;18.15;7.32;;;24.50;99.90;;;;;;4973722;28;20041;-54
2022/06/01 08:08:51;;;;;;;12.20;4.18;;;24.50;99.90;;;;;;4975127;28;20108;-55
2022/06/01 08:11:18;;;;;;;14.52;3.83;;;24.50;99.90;;;;;;4976003;28;20495;-54
2022/06/01 08:13:44;;;;;;;13.88;5.32;;;24.60;99.90;;;;;;4976033;28;20113;-55
2022/06/01 08:16:10;;;;;;;14.13;4.15;;;24.50;99.90;;;;;;4975414;28;20071;-55
2022/06/01 08:18:37;;;;;;;13.73;4.50;;;24.60;99.90;;;;;;4975917;28;20479;-55
2022/06/01 08:21:03;;;;;;;12.00;5.32;;;24.60;99.90;;;;;;4976272;28;20030;-56
2022/06/01 08:23:31;;;;;;;15.50;4.72;;;24.60;99.90;;;;;;4976237;28;20055;-55
2022/06/01 08:25:58;;;;;;;9.93;3.85;;;24.70;99.90;;;;;;4975852;28;20023;-55
2022/06/01 08:28:25;;;;;;;17.02;4.40;;;24.70;99.90;;;;;;4975811;28;20023;-55
2022/06/01 08:30:51;;;;;;;13.20;3.97;;;24.70;99.90;;;;;;4975600;28;20041;-56
2022/06/01 08:33:18;;;;;;;17.92;5.60;;;24.70;99.90;;;;;;4974628;28;20015;-56
2022/06/01 08:35:47;;;;;;;12.68;4.72;;;24.70;99.90;;;;;;4975611;28;20042;-56
2022/06/01 08:38:14;;;;;;;9.35;3.10;;;24.70;99.90;;;;;;4975852;28;20023;-57
2022/06/01 08:41:03;;;;;;;15.90;3.92;;;24.80;99.90;;;;;;4975718;28;20031;-56
2022/06/01 08:43:51;;;;;;;13.48;3.95;;;24.80;99.90;;;;;;4975636;28;20065;-55
2022/06/01 08:46:18;;;;;;;10.48;3.33;;;24.80;99.90;;;;;;4975258;28;20533;-55
2022/06/01 08:48:52;;;;;;;12.48;4.38;;;24.80;99.90;;;;;;4975497;28;20031;-55
2022/06/01 08:51:23;;;;;;;9.05;4.03;;;24.90;99.90;;;;;;4975770;28;20058;-55
2022/06/01 08:53:49;;;;;;;13.25;4.20;;;25.00;99.90;;;;;;4975282;28;20035;-55
2022/06/01 08:56:26;;;;;;;10.38;4.18;;;25.00;99.90;;;;;;4975357;28;20023;-56
2022/06/01 08:59:28;;;;;;;12.03;4.10;;;25.00;99.90;;;;;;4975125;28;20019;-55
2022/06/01 09:02:18;;;;;;;14.18;4.18;;;25.00;99.90;;;;;;4975398;28;20045;-56
2022/06/01 09:04:51;;;;;;;9.13;3.97;;;25.00;99.90;;;;;;4975015;28;20038;-55
2022/06/01 09:07:28;;;;;;;9.70;3.70;;;25.10;99.90;;;;;;4975245;28;20073;-55
2022/06/01 09:10:21;;;;;;;13.93;3.42;;;25.10;99.90;;;;;;4974819;28;20019;-55
2022/06/01 09:12:49;;;;;;;10.77;3.00;;;25.10;99.90;;;;;;4974838;28;20031;-55
2022/06/01 09:15:21;;;;;;;5.68;2.75;;;25.20;99.90;;;;;;4974696;28;20050;-56
2022/06/01 09:17:48;;;;;;;10.80;4.22;;;25.20;99.90;;;;;;4974803;28;20027;-55
2022/06/01 09:23:17;;;;;;;12.32;3.92;;;25.30;99.90;;;;;;4975266;28;20030;-55
2022/06/01 09:25:54;;;;;;;12.60;4.18;;;25.30;99.90;;;;;;4974651;28;20038;-55
2022/06/01 09:28:22;;;;;;;10.80;3.50;;;25.30;99.90;;;;;;4974590;28;20450;-55
2022/06/01 09:30:58;;;;;;;8.82;3.63;;;25.30;99.90;;;;;;4974529;28;20027;-56
2022/06/01 09:33:36;;;;;;;8.55;3.30;;;25.20;99.90;;;;;;4974593;28;20328;-55
2022/06/01 09:36:07;;;;;;;10.98;4.10;;;25.20;99.90;;;;;;4974630;28;20039;-56
2022/06/01 09:38:36;;;;;;;7.78;3.25;;;25.20;99.90;;;;;;4974721;28;20043;-56
2022/06/01 09:41:22;;;;;;;10.45;3.72;;;25.10;99.90;;;;;;4974580;28;20037;-55
2022/06/01 09:43:56;;;;;;;16.60;3.72;;;25.10;99.90;;;;;;4968906;28;20027;-56
2022/06/01 09:46:24;;;;;;;7.88;3.33;;;25.10;99.90;;;;;;4966372;28;20491;-56
2022/06/01 09:48:50;;;;;;;8.23;4.03;;;25.10;99.90;;;;;;4974211;28;20049;-56
2022/06/01 09:51:18;;;;;;;5.10;2.90;;;25.10;99.90;;;;;;4974433;28;20023;-56
2022/06/01 09:53:50;;;;;;;;;;;25.00;99.90;;;;;;4974613;28;20057;-55
2022/06/01 09:56:41;;;;;;;12.10;6.78;;;24.90;99.90;;;;;;4961145;28;19917;-56
2022/06/01 10:08:16;;;;;;;10.07;5.38;;;24.80;99.90;;;;;;4974343;28;20037;-56
2022/06/01 10:11:08;;;;;;;15.52;7.20;;;24.80;99.90;;;;;;4972474;28;20390;-56
2022/06/01 10:13:38;;;;;;;11.23;5.18;;;24.90;99.90;;;;;;4959721;28;20356;-56
2022/06/01 10:16:21;;;;;;;35.08;20.67;;;24.90;99.90;;;;;;4974045;28;20031;-56
2022/06/01 10:18:48;;;;;;;11.18;6.60;;;25.00;99.90;;;;;;4954817;28;20046;-57
2022/06/01 10:21:20;;;;;;;12.68;5.10;;;25.00;99.90;;;;;;4954236;28;20069;-56
2022/06/01 10:24:12;;;;;;;8.25;4.35;;;25.00;99.90;;;;;;4954162;28;20430;-56
2022/06/01 10:26:43;;;;;;;12.20;4.20;;;25.00;99.90;;;;;;4952820;28;20502;-56
2022/06/01 10:29:16;;;;;;;11.02;4.32;;;25.00;99.90;;;;;;4953363;28;20066;-56
2022/06/01 10:31:59;;;;;;;7.18;4.18;;;25.10;99.90;;;;;;4957014;28;20030;-56
2022/06/01 10:34:31;;;;;;;14.95;7.85;;;25.00;99.90;;;;;;4954001;28;20106;-56
2022/06/01 10:37:27;;;;;;;11.82;3.40;;;25.10;99.90;;;;;;4952909;28;20019;-56
2022/06/01 10:40:01;;;;;;;7.40;3.97;;;25.10;99.90;;;;;;4965796;28;20104;-56
2022/06/01 10:45:28;;;;;;;12.50;4.47;;;25.20;99.90;;;;;;4973384;28;20078;-56
2022/06/01 10:47:59;;;;;;;6.90;3.40;;;25.30;99.90;;;;;;4964052;28;20093;-55
2022/06/01 10:50:32;;;;;;;10.10;3.90;;;25.30;99.90;;;;;;4953537;28;20550;-56
2022/06/01 10:53:17;;;;;;;8.77;3.13;;;25.40;99.90;;;;;;4964602;28;20034;-57
2022/06/01 10:55:44;;;;;;;6.07;3.10;;;25.40;99.90;;;;;;4959277;28;20549;-57
2022/06/01 10:58:21;;;;;;;9.52;3.08;;;25.40;99.90;;;;;;4973328;28;20037;-55
2022/06/01 11:00:50;;;;;;;10.07;3.97;;;25.40;99.90;;;;;;4967071;28;20078;-56
2022/06/01 11:03:31;;;;;;;9.57;3.45;;;25.50;99.90;;;;;;4970034;28;20045;-57
2022/06/01 11:06:03;;;;;;;12.57;4.45;;;25.60;99.90;;;;;;4951984;28;20051;-58
2022/06/01 11:08:42;;;;;;;11.38;3.45;;;25.60;99.90;;;;;;4953804;28;20031;-58
2022/06/01 11:11:31;;;;;;;6.07;3.55;;;25.70;99.90;;;;;;4952743;28;20030;-56
2022/06/01 11:14:09;;;;;;;7.82;3.38;;;25.70;99.90;;;;;;4952448;28;20114;-56
2022/06/01 11:16:53;;;;;;;8.63;2.50;;;25.80;99.90;;;;;;4954242;28;20098;-56
2022/06/01 11:19:29;;;;;;;7.97;1.65;;;25.90;99.90;;;;;;4964729;28;20360;-57
2022/06/01 11:22:06;;;;;;;5.85;1.92;;;25.90;99.90;;;;;;4967536;28;20023;-56
2022/06/01 11:24:45;;;;;;;3.80;1.75;;;25.90;99.90;;;;;;4972357;28;20018;-56
2022/06/01 11:27:19;;;;;;;5.32;1.80;;;26.00;99.90;;;;;;4958601;28;20050;-56
2022/06/01 11:30:09;;;;;;;7.80;2.17;;;26.00;99.90;;;;;;4970604;28;20490;-56
2022/06/01 11:32:54;;;;;;;4.68;2.13;;;26.00;99.90;;;;;;4959184;28;20109;-56
2022/06/01 11:35:28;;;;;;;3.28;2.30;;;26.00;99.90;;;;;;4970492;28;20070;-56
2022/06/01 11:38:19;;;;;;;6.25;1.88;;;26.00;99.90;;;;;;4970691;28;20374;-55
2022/06/01 11:40:49;;;;;;;5.68;1.80;;;25.80;99.90;;;;;;4969573;28;20479;-56
2022/06/01 11:43:29;;;;;;;5.45;1.85;;;25.70;99.90;;;;;;4970553;28;20074;-56
2022/06/01 11:46:08;;;;;;;4.50;1.83;;;25.50;99.90;;;;;;4970486;28;20709;-55
2022/06/01 11:48:37;;;;;;;7.43;3.13;;;25.40;99.90;;;;;;4970470;28;20034;-56
2022/06/01 11:51:21;;;;;;;4.50;2.70;;;25.40;99.90;;;;;;4972419;28;20050;-56
2022/06/01 11:54:17;;;;;;;9.93;2.70;;;25.40;99.90;;;;;;4958266;28;20509;-55
2022/06/01 11:56:58;;;;;;;5.00;3.38;;;25.40;99.90;;;;;;4972445;28;20039;-56
2022/06/01 11:59:45;;;;;;;3.25;1.77;;;25.40;99.90;;;;;;4972440;28;20478;-55
2022/06/01 12:02:41;;;;;;;11.40;6.88;;;25.50;99.90;;;;;;4972372;28;20399;-55
2022/06/01 12:05:29;;;;;;;5.60;3.08;;;25.40;99.90;;;;;;4970062;28;20470;-53
2022/06/01 12:08:00;;;;;;;9.48;3.00;;;25.40;99.90;;;;;;4959093;28;20035;-55
2022/06/01 12:10:32;;;;;;;12.65;5.13;;;25.40;99.90;;;;;;4972139;28;20027;-56
2022/06/01 12:13:23;;;;;;;31.55;13.98;;;25.40;99.90;;;;;;4971820;28;20027;-54
2022/06/01 12:16:26;;;;;;;26.30;12.73;;;25.30;99.90;;;;;;4971428;28;20153;-49
2022/06/01 12:19:16;;;;;;;5.10;2.30;;;25.40;99.90;;;;;;4958818;28;20047;-50
2022/06/01 12:21:44;;;;;;;8.35;4.82;;;25.50;99.90;;;;;;4968037;28;20163;-51
2022/06/01 12:30:05;;;;;;;5.38;2.28;;;25.80;99.90;;;;;;4960464;28;20111;-51
2022/06/01 12:33:00;;;;;;;11.40;2.50;;;25.90;99.90;;;;;;4961957;28;20030;-51
2022/06/01 12:35:39;;;;;;;6.38;2.20;;;26.00;99.90;;;;;;4971289;28;20126;-54
2022/06/01 12:38:09;;;;;;;8.27;2.75;;;26.10;99.90;;;;;;4968225;28;20119;-54
2022/06/01 12:40:36;;;;;;;8.55;2.95;;;26.20;99.90;;;;;;4967311;28;20030;-53
2022/06/01 12:43:11;;;;;;;4.45;1.92;;;26.40;99.90;;;;;;4963562;28;20583;-54
2022/06/01 12:45:40;;;;;;;4.65;1.50;;;26.40;99.90;;;;;;4964095;28;20509;-52
2022/06/01 12:48:10;;;;;;;5.78;3.47;;;26.50;99.90;;;;;;4958630;28;20019;-52
2022/06/01 12:50:50;;;;;;;4.47;2.00;;;26.50;99.90;;;;;;4957236;28;20394;-56
2022/06/01 12:53:26;;;;;;;5.78;1.50;;;26.50;99.90;;;;;;4956834;28;20035;-52
2022/06/01 12:56:12;;;;;;;4.80;1.50;;;26.40;99.90;;;;;;4963816;28;20035;-52
2022/06/01 12:58:40;;;;;;;11.40;5.15;;;26.40;99.90;;;;;;4974936;28;20479;-51
2022/06/01 13:01:06;;;;;;;5.68;2.45;;;26.40;99.90;;;;;;4974754;28;20498;-54
2022/06/01 13:03:33;;;;;;;7.78;2.13;;;26.40;99.90;;;;;;4975317;28;20023;-54
2022/06/01 13:06:02;;;;;;;3.13;1.50;;;26.40;99.90;;;;;;4970634;28;20488;-53
2022/06/01 13:08:32;;;;;;;7.38;2.30;;;26.50;99.90;;;;;;4962323;28;20022;-51
2022/06/01 13:11:30;;;;;;;9.68;2.17;;;26.50;99.90;;;;;;4964456;28;20030;-53
2022/06/01 13:14:03;;;;;;;11.88;3.20;;;26.40;99.90;;;;;;4957825;28;20479;-52
2022/06/01 13:16:45;;;;;;;5.55;2.88;;;26.40;99.90;;;;;;4968932;28;20405;-53
2022/06/01 13:19:19;;;;;;;7.18;2.20;;;26.50;99.90;;;;;;4967457;28;20029;-52
2022/06/01 13:21:53;;;;;;;6.50;2.15;;;26.50;99.90;;;;;;4971050;28;20067;-54
2022/06/01 13:24:20;;;;;;;13.32;2.85;;;26.60;99.90;;;;;;4974378;28;20069;-53
2022/06/01 13:26:48;;;;;;;;;;;26.60;99.90;;;;;;4972010;28;20430;-54
2022/06/01 13:29:26;;;;;;;6.43;1.60;;;26.70;99.90;;;;;;4972297;28;19906;-50
2022/06/01 13:31:53;;;;;;;;;;;26.70;99.90;;;;;;4975215;28;20031;-51
2022/06/01 13:34:38;;;;;;;7.82;2.25;;;26.80;99.90;;;;;;4971970;28;19922;-55
2022/06/01 13:37:26;;;;;;;8.48;2.58;;;26.80;99.90;;;;;;4962464;28;20066;-55
2022/06/01 13:39:55;;;;;;;7.22;1.83;;;26.80;99.90;;;;;;4964543;28;20550;-53